Time;durP1;ratioP1;P1;durP2;ratioP2;P2;SDS_P1;SDS_P2;PMS_P1;PMS_P2;Temp;Humidity;BMP_temperature;BMP_pressure;BME280_temperature;BME280_humidity;BME280_pressure;Samples;Min_cycle;Max_cycle;Signal;HPM_P1;HPM_P2
2023/03/04 00:00:12;;;;;;;32.07;14.60;;;3.90;1.00;;;;;;5090203;28;20777;-57
2023/03/04 00:02:37;;;;;;;32.60;14.48;;;2.10;1.00;;;;;;5089760;28;20409;-57
2023/03/04 00:05:03;;;;;;;33.53;14.20;;;2.10;1.00;;;;;;5090322;28;20406;-56
2023/03/04 00:07:29;;;;;;;33.50;16.00;;;2.20;1.00;;;;;;5089496;28;20889;-57
2023/03/04 00:09:55;;;;;;;39.30;14.70;;;2.20;1.00;;;;;;5090252;28;20390;-56
2023/03/04 00:12:20;;;;;;;42.08;16.30;;;2.30;1.00;;;;;;5090179;28;20464;-56
2023/03/04 00:14:46;;;;;;;35.23;16.53;;;2.30;1.00;;;;;;5090071;28;20405;-56
2023/03/04 00:17:13;;;;;;;36.63;15.05;;;2.30;99.90;;;;;;5090446;28;20397;-56
2023/03/04 00:19:38;;;;;;;40.22;16.52;;;2.30;99.90;;;;;;5088978;28;20863;-57
2023/03/04 00:22:04;;;;;;;40.93;17.90;;;2.30;99.90;;;;;;5090205;28;20390;-56
2023/03/04 00:24:30;;;;;;;33.28;15.82;;;2.30;99.90;;;;;;5089174;28;20440;-56
2023/03/04 00:26:56;;;;;;;34.30;14.30;;;2.30;99.90;;;;;;5090138;28;20390;-56
2023/03/04 00:29:21;;;;;;;33.83;13.50;;;2.20;99.90;;;;;;5089802;28;20894;-56
2023/03/04 00:31:48;;;;;;;31.85;14.07;;;2.10;99.90;;;;;;5090071;28;20531;-57
2023/03/04 00:34:14;;;;;;;33.97;13.90;;;2.00;99.90;;;;;;5089713;28;20398;-57
2023/03/04 00:36:39;;;;;;;33.10;14.50;;;1.90;99.90;;;;;;5089424;28;20366;-56
2023/03/04 00:39:05;;;;;;;35.45;14.68;;;1.90;99.90;;;;;;5089880;28;20429;-57
2023/03/04 00:41:30;;;;;;;31.93;14.17;;;1.80;99.90;;;;;;5088917;28;20382;-57
2023/03/04 00:43:56;;;;;;;35.13;13.90;;;1.80;99.90;;;;;;5089412;28;20433;-56
2023/03/04 00:46:22;;;;;;;32.87;13.63;;;1.80;99.90;;;;;;5089347;28;20432;-56
2023/03/04 00:48:47;;;;;;;35.58;14.70;;;1.70;99.90;;;;;;5089614;28;20961;-56
2023/03/04 00:51:13;;;;;;;35.40;15.57;;;1.70;99.90;;;;;;5089412;28;20828;-56
2023/03/04 00:53:39;;;;;;;33.83;14.93;;;1.60;99.90;;;;;;5088543;28;20447;-56
2023/03/04 00:56:06;;;;;;;34.00;14.13;;;1.60;1.00;;;;;;5089654;28;20426;-57
2023/03/04 00:58:31;;;;;;;33.03;14.52;;;1.60;1.00;;;;;;5089076;28;20394;-56
2023/03/04 01:00:57;;;;;;;30.38;14.13;;;1.60;1.00;;;;;;5089718;28;20397;-56
2023/03/04 01:03:23;;;;;;;29.90;13.63;;;1.50;99.90;;;;;;5089180;28;20845;-56
2023/03/04 01:05:48;;;;;;;33.43;14.57;;;1.40;1.00;;;;;;5090035;28;20398;-56
2023/03/04 01:08:14;;;;;;;29.60;14.90;;;1.40;1.00;;;;;;5088055;28;20402;-56
2023/03/04 01:10:40;;;;;;;32.58;13.35;;;2.70;1.00;;;;;;5088841;28;20488;-56
2023/03/04 01:13:05;;;;;;;33.73;15.37;;;1.30;1.00;;;;;;5089876;28;20404;-56
2023/03/04 01:15:31;;;;;;;32.85;15.80;;;1.30;1.00;;;;;;5088563;28;20398;-57
2023/03/04 01:17:56;;;;;;;36.53;14.87;;;1.20;1.00;;;;;;5089761;28;20879;-57
2023/03/04 01:20:23;;;;;;;37.47;14.30;;;1.20;1.00;;;;;;5089425;28;20398;-56
2023/03/04 01:22:49;;;;;;;31.42;12.88;;;1.40;1.00;;;;;;5088062;28;20401;-56
2023/03/04 01:25:15;;;;;;;30.17;13.10;;;1.30;1.00;;;;;;5089292;28;20433;-56
2023/03/04 01:27:40;;;;;;;33.10;11.77;;;1.30;1.00;;;;;;5090885;28;20401;-55
2023/03/04 01:30:06;;;;;;;25.47;10.97;;;1.30;1.00;;;;;;5093443;28;20886;-56
2023/03/04 01:32:32;;;;;;;25.95;11.80;;;1.30;38.60;;;;;;5092606;28;20743;-56
2023/03/04 01:34:57;;;;;;;27.70;11.23;;;1.30;99.90;;;;;;5093628;28;20393;-56
2023/03/04 01:37:23;;;;;;;28.80;12.20;;;1.20;99.90;;;;;;5093520;28;20444;-56
2023/03/04 01:39:49;;;;;;;28.73;11.50;;;1.20;99.90;;;;;;5092665;28;20394;-56
2023/03/04 01:42:19;;;;;;;26.75;11.15;;;1.20;99.90;;;;;;5093100;28;20797;-56
2023/03/04 01:44:47;;;;;;;30.10;10.90;;;1.20;99.90;;;;;;5092037;28;20422;-56
2023/03/04 01:47:13;;;;;;;27.33;11.27;;;1.10;1.00;;;;;;5092719;28;20393;-56
2023/03/04 01:49:39;;;;;;;33.72;12.02;;;1.10;1.00;;;;;;5092516;28;20390;-56
2023/03/04 01:52:09;;;;;;;25.40;10.45;;;1.10;1.00;;;;;;5093236;28;20374;-56
2023/03/04 01:54:38;;;;;;;25.05;11.40;;;1.00;1.00;;;;;;5092187;28;20394;-56
2023/03/04 01:57:36;;;;;;;34.08;13.40;;;1.00;99.90;;;;;;5093119;28;20447;-56
2023/03/04 02:00:20;;;;;;;31.63;12.48;;;1.10;99.90;;;;;;5091345;28;20481;-56
2023/03/04 02:02:49;;;;;;;31.10;10.25;;;1.10;99.90;;;;;;5091572;28;21377;-56
2023/03/04 02:05:15;;;;;;;28.33;12.35;;;1.20;92.30;;;;;;5092296;28;20413;-56
2023/03/04 02:07:41;;;;;;;40.05;13.60;;;1.10;99.90;;;;;;5091745;28;20739;-56
2023/03/04 02:10:09;;;;;;;38.58;13.98;;;1.10;99.90;;;;;;5092412;28;20402;-56
2023/03/04 02:12:34;;;;;;;27.00;10.95;;;0.60;99.90;;;;;;5089781;28;20932;-56
2023/03/04 02:15:00;;;;;;;25.27;11.25;;;1.10;99.90;;;;;;5092612;28;20393;-56
2023/03/04 02:17:26;;;;;;;34.83;11.68;;;1.10;1.00;;;;;;5091292;28;20492;-56
2023/03/04 02:20:17;;;;;;;30.00;12.82;;;1.00;99.90;;;;;;5092393;28;20447;-56
2023/03/04 02:23:09;;;;;;;29.42;11.90;;;1.00;1.00;;;;;;5091607;28;20381;-56
2023/03/04 02:25:42;;;;;;;28.77;10.90;;;1.00;1.00;;;;;;5091291;28;20430;-57
2023/03/04 02:28:07;;;;;;;27.00;11.05;;;1.10;99.90;;;;;;5092171;28;20410;-56
2023/03/04 02:30:34;;;;;;;23.23;10.10;;;2.40;99.90;;;;;;5091819;28;20393;-56
2023/03/04 02:32:59;;;;;;;23.03;10.77;;;1.00;99.90;;;;;;5092251;28;20391;-56
2023/03/04 02:35:25;;;;;;;29.70;10.90;;;0.80;1.00;;;;;;5091092;28;20386;-56
2023/03/04 02:37:51;;;;;;;27.00;11.50;;;0.80;1.00;;;;;;5091737;28;20377;-56
2023/03/04 02:40:28;;;;;;;22.52;10.02;;;0.70;99.90;;;;;;5091797;28;20464;-56
2023/03/04 02:42:53;;;;;;;29.45;11.65;;;0.70;99.90;;;;;;5092598;28;20422;-56
2023/03/04 02:45:40;;;;;;;28.83;11.13;;;0.60;99.90;;;;;;5092193;28;20413;-57
2023/03/04 02:48:07;;;;;;;33.05;12.05;;;0.70;1.00;;;;;;5090529;28;20401;-56
2023/03/04 02:50:45;;;;;;;27.40;11.30;;;0.70;1.00;;;;;;5091049;28;20393;-56
2023/03/04 02:53:11;;;;;;;26.15;11.98;;;0.70;1.00;;;;;;5092156;28;20413;-56
2023/03/04 02:55:36;;;;;;;24.88;10.25;;;0.70;1.00;;;;;;5090878;28;20871;-57
2023/03/04 02:58:02;;;;;;;25.00;11.13;;;0.60;1.00;;;;;;5091663;28;20426;-56
2023/03/04 03:00:28;;;;;;;21.90;10.15;;;0.60;1.00;;;;;;5090598;28;20390;-56
2023/03/04 03:02:55;;;;;;;24.70;11.15;;;0.60;1.00;;;;;;5091945;28;20434;-56
2023/03/04 03:05:28;;;;;;;25.02;10.50;;;0.60;95.50;;;;;;5091751;28;20398;-56
2023/03/04 03:07:53;;;;;;;28.13;11.25;;;0.60;1.00;;;;;;5075468;28;20394;-56
2023/03/04 03:10:20;;;;;;;28.33;11.20;;;0.50;1.00;;;;;;5091271;28;20914;-56
2023/03/04 03:12:45;;;;;;;29.98;11.15;;;0.50;1.00;;;;;;5090772;28;21047;-56
2023/03/04 03:15:11;;;;;;;26.70;10.37;;;0.30;1.00;;;;;;5091276;28;20489;-56
2023/03/04 03:17:37;;;;;;;28.58;11.35;;;0.20;99.90;;;;;;5090497;28;20409;-56
2023/03/04 03:20:03;;;;;;;27.45;10.57;;;0.30;99.90;;;;;;5091629;28;20390;-56
2023/03/04 03:22:29;;;;;;;26.40;11.23;;;0.20;99.90;;;;;;5090611;28;20420;-56
2023/03/04 03:24:55;;;;;;;31.10;11.53;;;0.20;1.00;;;;;;5090918;28;20505;-56
2023/03/04 03:27:20;;;;;;;28.60;11.33;;;0.20;1.00;;;;;;5090964;28;20489;-56
2023/03/04 03:29:46;;;;;;;28.65;11.05;;;0.30;1.00;;;;;;5090596;28;20430;-56
2023/03/04 03:32:11;;;;;;;29.07;11.00;;;0.20;1.00;;;;;;5089449;28;20397;-56
2023/03/04 03:34:38;;;;;;;25.33;11.07;;;0.20;99.90;;;;;;5090152;28;20386;-56
2023/03/04 03:37:04;;;;;;;26.80;11.27;;;0.30;1.00;;;;;;5091122;28;20879;-56
2023/03/04 03:39:30;;;;;;;24.42;10.80;;;0.30;99.90;;;;;;5089726;28;20398;-58
2023/03/04 03:41:55;;;;;;;25.50;10.80;;;0.30;25.20;;;;;;5091011;28;20827;-56
2023/03/04 03:44:21;;;;;;;29.57;12.37;;;0.20;1.00;;;;;;5091015;28;20463;-56
2023/03/04 03:46:46;;;;;;;27.33;10.82;;;0.20;1.00;;;;;;5090257;28;20469;-56
2023/03/04 03:49:12;;;;;;;27.93;10.63;;;0.20;1.00;;;;;;5090891;28;20370;-55
2023/03/04 03:51:38;;;;;;;30.55;12.65;;;0.20;1.00;;;;;;5089621;28;20802;-55
2023/03/04 03:54:04;;;;;;;28.80;12.17;;;0.10;99.90;;;;;;5090623;28;20397;-55
2023/03/04 03:56:29;;;;;;;24.80;11.65;;;0.10;99.90;;;;;;5090436;28;20398;-56
2023/03/04 03:58:55;;;;;;;27.93;11.70;;;0.10;99.90;;;;;;5090380;28;20906;-56
2023/03/04 04:01:20;;;;;;;27.90;13.03;;;0.10;1.00;;;;;;5090563;28;20457;-56
2023/03/04 04:03:46;;;;;;;33.58;12.20;;;0.00;1.00;;;;;;5090053;28;20421;-55
2023/03/04 04:06:12;;;;;;;26.03;11.60;;;0.00;1.00;;;;;;5090578;28;20401;-56
2023/03/04 04:08:38;;;;;;;30.47;12.17;;;0.00;99.90;;;;;;5089783;28;20394;-56
2023/03/04 04:11:04;;;;;;;29.58;12.27;;;0.00;1.00;;;;;;5090176;28;20390;-56
2023/03/04 04:13:29;;;;;;;27.63;11.17;;;0.00;1.00;;;;;;5089324;28;20885;-56
2023/03/04 04:15:55;;;;;;;29.60;11.60;;;0.10;1.00;;;;;;5089892;28;20382;-56
2023/03/04 04:18:22;;;;;;;25.38;10.55;;;0.00;1.00;;;;;;5072929;28;20416;-56
2023/03/04 04:20:48;;;;;;;33.72;13.55;;;0.00;99.90;;;;;;5089138;28;20482;-56
2023/03/04 04:23:13;;;;;;;27.80;12.00;;;0.00;99.90;;;;;;5090007;28;20422;-56
2023/03/04 04:25:39;;;;;;;36.90;12.73;;;0.00;99.90;;;;;;5088988;28;20503;-56
2023/03/04 04:28:05;;;;;;;32.88;12.35;;;0.10;99.90;;;;;;5089781;28;20456;-55
2023/03/04 04:30:30;;;;;;;29.52;10.60;;;0.00;99.90;;;;;;5089573;28;20401;-56
2023/03/04 04:33:00;;;;;;;31.07;12.63;;;0.90;99.90;;;;;;5089862;28;20941;-56
2023/03/04 04:35:26;;;;;;;29.00;11.88;;;0.00;1.00;;;;;;5089784;28;20408;-55
2023/03/04 04:37:52;;;;;;;28.73;12.77;;;0.00;99.90;;;;;;5089645;28;20417;-56
2023/03/04 04:40:18;;;;;;;31.03;12.03;;;-0.10;1.00;;;;;;5089885;28;20451;-55
2023/03/04 04:42:44;;;;;;;39.70;13.17;;;-0.10;1.00;;;;;;5089565;28;20435;-56
2023/03/04 04:45:10;;;;;;;31.30;11.63;;;-0.20;1.00;;;;;;5089709;28;20413;-56
2023/03/04 04:47:35;;;;;;;27.13;11.55;;;-0.20;1.00;;;;;;5088800;28;20467;-56
2023/03/04 04:50:02;;;;;;;32.63;12.32;;;-0.30;1.00;;;;;;5090267;28;20842;-56
2023/03/04 04:52:27;;;;;;;29.02;11.88;;;-0.30;45.90;;;;;;5089147;28;20414;-56
2023/03/04 04:54:53;;;;;;;32.30;12.40;;;-0.30;1.00;;;;;;5090086;28;20425;-56
2023/03/04 04:57:19;;;;;;;31.42;12.82;;;-0.40;99.90;;;;;;5089737;28;20413;-57
2023/03/04 04:59:44;;;;;;;32.40;12.80;;;-0.40;99.90;;;;;;5089715;28;20498;-57
2023/03/04 05:02:10;;;;;;;33.15;12.88;;;-0.40;1.00;;;;;;5088572;28;20388;-57
2023/03/04 05:04:35;;;;;;;31.33;11.70;;;-0.50;10.90;;;;;;5088949;28;20413;-57
2023/03/04 05:07:01;;;;;;;33.67;12.73;;;-0.60;99.90;;;;;;5089465;28;20393;-56
2023/03/04 05:09:26;;;;;;;31.92;11.88;;;-0.60;99.90;;;;;;5088851;28;20925;-56
2023/03/04 05:11:52;;;;;;;32.13;13.60;;;-0.60;1.00;;;;;;5089610;28;20386;-56
2023/03/04 05:14:19;;;;;;;31.30;12.37;;;-0.70;1.00;;;;;;5081530;28;20436;-56
2023/03/04 05:16:44;;;;;;;29.58;12.13;;;-0.60;1.00;;;;;;5080375;28;20767;-56
2023/03/04 05:19:10;;;;;;;29.52;12.63;;;-0.60;1.00;;;;;;5089442;28;20423;-55
2023/03/04 05:21:36;;;;;;;29.50;11.93;;;-0.60;1.00;;;;;;5088504;28;20412;-55
2023/03/04 05:24:02;;;;;;;31.97;11.70;;;-0.60;1.00;;;;;;5089093;28;20485;-55
2023/03/04 05:26:27;;;;;;;34.03;12.52;;;-0.70;99.90;;;;;;5089176;28;20440;-58
2023/03/04 05:28:54;;;;;;;31.23;12.85;;;-0.70;1.00;;;;;;5089490;28;20960;-58
2023/03/04 05:31:20;;;;;;;26.60;12.02;;;-0.70;1.00;;;;;;5089140;28;20428;-56
2023/03/04 05:33:45;;;;;;;36.17;12.70;;;-0.80;1.00;;;;;;5088788;28;20381;-56
2023/03/04 05:36:11;;;;;;;35.50;13.43;;;-0.70;14.40;;;;;;5088283;28;20385;-56
2023/03/04 05:38:36;;;;;;;34.60;14.13;;;-0.70;14.80;;;;;;5088769;28;20382;-57
2023/03/04 05:41:04;;;;;;;34.10;12.23;;;-0.70;67.80;;;;;;5089329;28;20723;-56
2023/03/04 05:43:33;;;;;;;32.63;14.52;;;-0.60;95.30;;;;;;5088659;28;20473;-57
2023/03/04 05:45:58;;;;;;;34.60;13.45;;;-0.60;1.00;;;;;;5089235;28;20420;-56
2023/03/04 05:48:24;;;;;;;39.27;14.60;;;-0.60;99.90;;;;;;5089500;28;20813;-55
2023/03/04 05:50:57;;;;;;;42.10;15.23;;;-0.60;99.90;;;;;;5088687;28;20843;-56
2023/03/04 05:53:23;;;;;;;34.63;15.40;;;-0.50;59.80;;;;;;5089094;28;20851;-56
2023/03/04 05:55:49;;;;;;;34.38;14.02;;;-0.50;8.50;;;;;;5088619;28;20740;-57
2023/03/04 05:58:15;;;;;;;39.50;13.82;;;-0.60;1.00;;;;;;5089370;28;20398;-57
2023/03/04 06:00:41;;;;;;;33.20;12.77;;;-0.70;1.00;;;;;;5088205;28;20394;-56
2023/03/04 06:03:20;;;;;;;37.25;14.50;;;-0.70;1.00;;;;;;5089179;28;20402;-56
2023/03/04 06:05:46;;;;;;;41.07;14.53;;;-0.80;29.50;;;;;;5088389;28;20417;-57
2023/03/04 06:08:12;;;;;;;35.80;14.50;;;-0.70;99.90;;;;;;5088568;28;20870;-56
2023/03/04 06:10:39;;;;;;;33.25;14.52;;;-0.70;33.20;;;;;;5087995;28;20390;-57
2023/03/04 06:13:05;;;;;;;31.10;14.20;;;-0.70;8.40;;;;;;5080816;28;20398;-56
2023/03/04 06:15:31;;;;;;;33.40;13.93;;;-0.70;1.00;;;;;;5090182;28;21013;-56
2023/03/04 06:17:57;;;;;;;32.50;11.83;;;-0.70;1.00;;;;;;5091806;28;20434;-56
2023/03/04 06:20:23;;;;;;;35.57;14.27;;;-0.70;1.00;;;;;;5091799;28;20402;-56
2023/03/04 06:22:48;;;;;;;44.30;14.65;;;-0.80;1.00;;;;;;5088647;28;20382;-56
2023/03/04 06:25:14;;;;;;;35.00;12.55;;;-0.80;1.00;;;;;;5092419;28;20460;-56
2023/03/04 06:27:40;;;;;;;37.30;13.88;;;-0.90;1.00;;;;;;5091450;28;20398;-56
2023/03/04 06:30:06;;;;;;;36.53;13.70;;;-0.80;20.10;;;;;;5090964;28;20490;-56
2023/03/04 06:32:32;;;;;;;35.75;14.60;;;-0.70;78.50;;;;;;5091202;28;21021;-56
2023/03/04 06:34:57;;;;;;;39.85;15.95;;;-0.50;37.80;;;;;;5090323;28;20544;-56
2023/03/04 06:37:23;;;;;;;33.00;14.10;;;-0.30;1.00;;;;;;5091735;28;20390;-56
2023/03/04 06:39:49;;;;;;;39.72;15.88;;;-0.20;1.00;;;;;;5091326;28;21040;-56
2023/03/04 06:42:15;;;;;;;36.77;14.20;;;0.00;1.00;;;;;;5091902;28;20424;-57
2023/03/04 06:44:40;;;;;;;41.10;15.15;;;1.90;99.90;;;;;;5091257;28;20405;-56
2023/03/04 06:47:06;;;;;;;35.07;14.10;;;0.10;99.90;;;;;;5088249;28;20409;-57
2023/03/04 06:49:32;;;;;;;36.25;14.10;;;0.10;1.00;;;;;;5090084;28;20393;-56
2023/03/04 06:51:57;;;;;;;37.25;13.95;;;0.10;1.00;;;;;;5091572;28;20390;-57
2023/03/04 06:54:23;;;;;;;38.10;14.10;;;0.20;1.00;;;;;;5091844;28;20401;-56
2023/03/04 06:56:49;;;;;;;34.93;13.50;;;0.20;1.00;;;;;;5074717;28;21074;-56
2023/03/04 06:59:17;;;;;;;37.65;14.70;;;0.20;25.20;;;;;;5051794;28;20396;-58
2023/03/04 07:01:42;;;;;;;35.20;15.40;;;0.30;99.90;;;;;;5058914;28;20821;-57
2023/03/04 07:04:08;;;;;;;34.05;12.25;;;0.30;99.90;;;;;;5068892;28;20447;-56
2023/03/04 07:06:33;;;;;;;33.47;13.53;;;0.20;99.90;;;;;;5067001;28;20411;-57
2023/03/04 07:08:59;;;;;;;39.22;14.50;;;0.20;1.00;;;;;;5082898;28;20411;-56
2023/03/04 07:11:25;;;;;;;38.28;14.38;;;0.20;1.00;;;;;;5090411;28;20398;-56
2023/03/04 07:13:51;;;;;;;38.10;16.15;;;0.40;1.00;;;;;;5084701;28;20403;-56
2023/03/04 07:16:20;;;;;;;37.83;14.60;;;0.40;1.00;;;;;;5088622;28;20394;-59
2023/03/04 07:18:46;;;;;;;37.33;13.07;;;0.50;1.00;;;;;;5090606;28;20416;-57
2023/03/04 07:21:13;;;;;;;38.95;13.55;;;0.70;1.00;;;;;;5090946;28;20468;-57
2023/03/04 07:23:39;;;;;;;37.75;14.90;;;0.90;99.90;;;;;;5083183;28;20712;-57
2023/03/04 07:26:06;;;;;;;41.95;14.10;;;1.00;99.90;;;;;;5080632;28;20411;-57
2023/03/04 07:28:32;;;;;;;40.85;15.05;;;1.00;99.90;;;;;;5057416;28;20415;-57
2023/03/04 07:31:10;;;;;;;37.72;14.55;;;1.20;1.00;;;;;;5070074;28;20880;-57
2023/03/04 07:33:36;;;;;;;40.35;14.25;;;1.30;99.90;;;;;;5077476;28;20879;-57
2023/03/04 07:36:02;;;;;;;44.28;15.43;;;0.90;99.90;;;;;;5067170;28;20446;-57
2023/03/04 07:38:27;;;;;;;38.33;14.20;;;1.50;99.90;;;;;;5065827;28;20454;-56
2023/03/04 07:40:57;;;;;;;34.97;14.43;;;1.60;1.00;;;;;;5073301;28;20755;-57
2023/03/04 07:43:23;;;;;;;38.28;14.88;;;1.70;1.00;;;;;;5063667;28;20403;-57
2023/03/04 07:45:48;;;;;;;35.93;14.97;;;1.80;1.00;;;;;;5071167;28;20752;-56
2023/03/04 07:48:14;;;;;;;39.97;14.30;;;1.80;1.00;;;;;;5068271;28;20409;-57
2023/03/04 07:50:39;;;;;;;32.10;13.75;;;1.90;99.90;;;;;;5057927;28;20408;-57
2023/03/04 07:53:05;;;;;;;31.43;10.80;;;1.90;85.50;;;;;;5058419;28;20406;-56
2023/03/04 07:55:30;;;;;;;33.30;13.48;;;1.70;94.60;;;;;;5079670;28;20407;-57
2023/03/04 07:57:56;;;;;;;35.47;13.57;;;1.80;99.90;;;;;;5067688;28;20475;-58
2023/03/04 08:00:22;;;;;;;33.50;12.00;;;1.90;99.90;;;;;;5057415;28;20399;-57
2023/03/04 08:02:48;;;;;;;35.55;13.30;;;1.80;1.00;;;;;;5067474;28;20436;-57
2023/03/04 08:05:14;;;;;;;36.03;11.85;;;1.80;41.20;;;;;;5068643;28;20417;-56
2023/03/04 08:07:40;;;;;;;30.55;13.57;;;1.90;1.00;;;;;;5057321;28;20451;-56
2023/03/04 08:10:07;;;;;;;34.30;13.80;;;2.00;1.00;;;;;;5055166;28;20759;-58
2023/03/04 08:12:34;;;;;;;33.70;14.15;;;2.10;1.00;;;;;;5052400;28;20726;-58
2023/03/04 08:14:59;;;;;;;38.05;14.40;;;2.30;1.00;;;;;;5069257;28;20508;-57
2023/03/04 08:17:25;;;;;;;34.50;14.30;;;2.30;99.90;;;;;;5060592;28;20478;-57
2023/03/04 08:19:51;;;;;;;30.65;13.20;;;2.20;99.90;;;;;;5066741;28;20376;-57
2023/03/04 08:22:16;;;;;;;36.80;13.20;;;2.00;99.90;;;;;;5068206;28;20463;-58
2023/03/04 08:24:42;;;;;;;31.17;12.60;;;2.50;1.00;;;;;;5049079;28;20428;-57
2023/03/04 08:27:08;;;;;;;38.33;14.93;;;1.80;1.00;;;;;;5058756;28;20451;-57
2023/03/04 08:29:34;;;;;;;31.67;13.02;;;1.80;1.00;;;;;;5054535;28;20409;-57
2023/03/04 08:31:59;;;;;;;35.35;13.73;;;2.00;99.90;;;;;;5057335;28;20494;-58
2023/03/04 08:34:27;;;;;;;32.87;13.30;;;2.80;1.00;;;;;;5054530;28;20432;-58
2023/03/04 08:36:53;;;;;;;31.23;12.70;;;2.20;99.90;;;;;;5051644;28;20602;-57
2023/03/04 08:39:19;;;;;;;29.15;13.10;;;2.30;1.00;;;;;;5049410;28;20408;-57
2023/03/04 08:41:46;;;;;;;30.92;13.07;;;2.30;1.00;;;;;;5049032;28;20748;-57
2023/03/04 08:44:12;;;;;;;30.08;12.20;;;2.40;1.00;;;;;;5062225;28;20404;-55
2023/03/04 08:46:40;;;;;;;34.03;12.38;;;2.50;99.90;;;;;;5057433;28;20465;-56
2023/03/04 08:49:05;;;;;;;31.55;12.15;;;2.60;99.90;;;;;;5051629;28;20438;-55
2023/03/04 08:51:31;;;;;;;34.37;13.50;;;4.40;45.70;;;;;;5053764;28;20495;-59
2023/03/04 08:53:57;;;;;;;32.90;12.30;;;2.80;1.00;;;;;;5055685;28;20404;-56
2023/03/04 08:56:23;;;;;;;29.92;12.05;;;2.70;1.00;;;;;;5054851;28;20576;-55
2023/03/04 08:58:48;;;;;;;24.53;10.20;;;2.50;1.00;;;;;;5056788;28;20415;-56
2023/03/04 09:01:15;;;;;;;33.63;11.87;;;2.60;1.00;;;;;;5057983;28;20413;-54
2023/03/04 09:03:41;;;;;;;28.52;12.25;;;2.80;13.90;;;;;;5069017;28;20396;-55
2023/03/04 09:06:10;;;;;;;30.73;11.90;;;3.40;1.00;;;;;;5061797;28;20498;-54
2023/03/04 09:08:39;;;;;;;30.38;11.02;;;2.70;1.00;;;;;;5062552;28;20384;-57
2023/03/04 09:11:05;;;;;;;29.75;12.20;;;2.70;40.40;;;;;;5061887;28;20402;-57
2023/03/04 09:13:31;;;;;;;26.50;11.48;;;2.80;1.00;;;;;;5050099;28;20453;-57
2023/03/04 09:15:58;;;;;;;25.17;11.05;;;2.90;1.00;;;;;;5056523;28;20389;-57
2023/03/04 09:18:24;;;;;;;26.97;11.13;;;4.70;1.00;;;;;;5056021;28;20392;-56
2023/03/04 09:20:50;;;;;;;31.00;12.13;;;3.10;1.00;;;;;;5062405;28;20454;-55
2023/03/04 09:23:16;;;;;;;30.70;11.50;;;3.10;1.00;;;;;;5057244;28;20406;-57
2023/03/04 09:25:43;;;;;;;35.42;11.32;;;4.50;99.90;;;;;;5058250;28;20429;-56
2023/03/04 09:28:10;;;;;;;27.40;9.80;;;3.30;99.90;;;;;;5050933;28;20429;-58
2023/03/04 09:30:36;;;;;;;22.85;10.13;;;3.30;99.90;;;;;;5064046;28;20410;-56
2023/03/04 09:33:02;;;;;;;24.30;10.03;;;3.40;99.90;;;;;;5062501;28;20458;-56
2023/03/04 09:35:28;;;;;;;23.38;9.90;;;3.70;99.90;;;;;;5060194;28;20892;-56
2023/03/04 09:37:54;;;;;;;25.58;10.95;;;3.80;99.90;;;;;;5060108;28;20388;-56
2023/03/04 09:40:23;;;;;;;26.38;10.80;;;3.80;68.00;;;;;;5066674;28;20395;-56
2023/03/04 09:42:54;;;;;;;26.70;10.88;;;3.80;78.30;;;;;;5061820;28;20419;-57
2023/03/04 09:45:25;;;;;;;25.10;9.33;;;3.90;40.70;;;;;;5067284;28;20405;-57
2023/03/04 09:47:53;;;;;;;28.75;11.02;;;3.70;21.10;;;;;;5067167;28;20492;-56
2023/03/04 09:50:19;;;;;;;21.30;9.32;;;3.80;61.10;;;;;;5073000;28;20402;-56
2023/03/04 09:52:57;;;;;;;27.40;10.13;;;3.80;20.80;;;;;;5071677;28;20405;-56
2023/03/04 09:55:34;;;;;;;27.53;10.73;;;4.00;20.10;;;;;;5072438;28;20484;-56
2023/03/04 09:58:18;;;;;;;23.92;10.65;;;4.20;1.00;;;;;;5072590;28;20453;-56
2023/03/04 10:00:55;;;;;;;24.60;10.88;;;4.30;1.00;;;;;;5072146;28;20498;-57
2023/03/04 10:03:31;;;;;;;25.27;11.43;;;5.40;1.00;;;;;;5072463;28;20404;-56
2023/03/04 10:06:03;;;;;;;27.35;11.75;;;4.80;1.00;;;;;;5072221;28;20490;-56
2023/03/04 10:08:43;;;;;;;23.70;11.85;;;5.70;1.00;;;;;;5065928;28;20381;-56
2023/03/04 10:11:23;;;;;;;23.83;10.02;;;4.80;1.00;;;;;;5061087;28;20756;-56
2023/03/04 10:14:02;;;;;;;27.98;11.90;;;4.80;1.00;;;;;;5070667;28;20464;-57
2023/03/04 10:16:54;;;;;;;26.42;11.05;;;5.00;1.00;;;;;;5076785;28;20404;-56
2023/03/04 10:19:40;;;;;;;27.10;11.52;;;5.10;1.00;;;;;;5078583;28;20488;-56
2023/03/04 10:22:22;;;;;;;30.27;11.48;;;5.10;1.00;;;;;;5091845;28;20469;-57
2023/03/04 10:24:48;;;;;;;29.65;12.32;;;6.40;1.00;;;;;;5087992;28;20428;-56
2023/03/04 10:27:18;;;;;;;28.67;12.97;;;4.70;1.00;;;;;;5068824;28;20441;-57
2023/03/04 10:29:43;;;;;;;26.30;10.90;;;4.70;1.00;;;;;;5072833;28;20423;-56
2023/03/04 10:32:16;;;;;;;28.95;12.80;;;5.80;1.00;;;;;;5092312;28;20789;-57
2023/03/04 10:34:43;;;;;;;29.43;12.10;;;5.00;1.00;;;;;;5084670;28;20391;-57
2023/03/04 10:37:08;;;;;;;30.92;12.55;;;6.30;1.00;;;;;;5072294;28;20402;-56
2023/03/04 10:39:45;;;;;;;30.13;12.90;;;5.10;1.00;;;;;;5091328;28;20390;-57
2023/03/04 10:42:13;;;;;;;28.90;13.88;;;5.10;1.00;;;;;;5074097;28;20962;-56
2023/03/04 10:44:51;;;;;;;27.55;12.73;;;4.90;1.00;;;;;;5070969;28;20490;-57
2023/03/04 10:47:17;;;;;;;32.50;12.93;;;5.40;1.00;;;;;;5065017;28;20397;-57
2023/03/04 10:49:54;;;;;;;35.75;14.90;;;5.70;1.00;;;;;;5067595;28;20449;-56
2023/03/04 10:52:45;;;;;;;32.90;14.05;;;4.80;1.00;;;;;;5074269;28;20393;-56
2023/03/04 10:55:17;;;;;;;34.08;13.55;;;5.30;1.00;;;;;;5070792;28;20399;-57
2023/03/04 10:57:49;;;;;;;33.70;14.45;;;5.60;1.00;;;;;;5068503;28;20417;-56
2023/03/04 11:00:17;;;;;;;30.00;13.67;;;4.80;1.00;;;;;;5069105;28;20915;-56
2023/03/04 11:02:45;;;;;;;29.50;12.50;;;4.70;1.00;;;;;;5066011;28;20413;-56
2023/03/04 11:05:14;;;;;;;32.90;14.68;;;4.60;1.00;;;;;;5070638;28;20811;-56
2023/03/04 11:07:43;;;;;;;31.50;12.88;;;4.50;1.00;;;;;;5070326;28;20388;-56
2023/03/04 11:10:28;;;;;;;34.60;13.55;;;4.30;1.00;;;;;;5071166;28;20376;-56
2023/03/04 11:12:57;;;;;;;35.95;13.90;;;4.20;1.00;;;;;;5062304;28;21188;-56
2023/03/04 11:15:26;;;;;;;35.67;14.25;;;4.40;1.00;;;;;;5056246;28;20394;-55
2023/03/04 11:18:12;;;;;;;34.60;14.20;;;4.70;1.00;;;;;;5061434;28;21020;-55
2023/03/04 11:20:45;;;;;;;37.17;14.40;;;4.40;1.00;;;;;;5062349;28;20399;-56
2023/03/04 11:23:32;;;;;;;44.45;16.88;;;6.40;1.00;;;;;;5065623;28;20414;-56
2023/03/04 11:26:03;;;;;;;45.47;16.20;;;4.70;1.00;;;;;;5053689;28;20423;-55
2023/03/04 11:28:45;;;;;;;40.10;16.70;;;6.30;1.00;;;;;;5061772;28;20474;-55
2023/03/04 11:31:31;;;;;;;36.90;14.75;;;4.70;1.00;;;;;;5058315;28;20883;-56
2023/03/04 11:34:00;;;;;;;30.88;12.40;;;4.50;1.00;;;;;;5060292;28;20400;-55
2023/03/04 11:36:45;;;;;;;33.75;14.25;;;4.30;1.00;;;;;;5056416;28;20407;-55
2023/03/04 11:39:34;;;;;;;41.70;17.30;;;4.00;1.00;;;;;;5068365;28;20391;-55
2023/03/04 11:42:16;;;;;;;45.60;17.23;;;4.00;1.00;;;;;;5069657;28;20440;-55
2023/03/04 11:44:41;;;;;;;42.42;19.05;;;4.10;1.00;;;;;;5070306;28;20514;-57
2023/03/04 11:47:39;;;;;;;42.75;17.50;;;4.30;1.00;;;;;;5079640;28;21005;-56
2023/03/04 11:50:26;;;;;;;37.47;16.02;;;4.20;1.00;;;;;;5064151;28;20943;-56
2023/03/04 11:53:26;;;;;;;48.22;20.52;;;4.20;1.00;;;;;;5055117;28;20932;-56
2023/03/04 11:56:17;;;;;;;37.92;15.38;;;4.40;1.00;;;;;;5065129;28;20408;-55
2023/03/04 11:59:16;;;;;;;35.88;15.00;;;4.40;1.00;;;;;;5067004;28;20879;-56
2023/03/04 12:01:54;;;;;;;46.42;16.65;;;4.40;1.00;;;;;;5066154;28;20415;-56
2023/03/04 12:05:11;;;;;;;43.58;17.30;;;4.50;1.00;;;;;;5063904;28;20423;-56
2023/03/04 12:07:58;;;;;;;38.22;16.15;;;4.70;1.00;;;;;;5025230;28;20827;-56
2023/03/04 12:10:38;;;;;;;39.67;16.02;;;4.50;1.00;;;;;;5057270;28;20400;-56
2023/03/04 12:13:35;;;;;;;39.08;16.73;;;4.50;1.00;;;;;;5059144;28;20415;-56
2023/03/04 12:16:18;;;;;;;41.90;16.52;;;4.50;1.00;;;;;;5058790;28;20430;-55
2023/03/04 12:19:12;;;;;;;40.80;17.10;;;4.50;1.00;;;;;;5052283;28;20425;-56
2023/03/04 12:21:52;;;;;;;41.75;15.88;;;4.60;1.00;;;;;;5054485;28;20377;-57
2023/03/04 12:24:31;;;;;;;35.15;16.25;;;4.50;1.00;;;;;;5051996;28;20426;-56
2023/03/04 12:27:38;;;;;;;39.35;16.85;;;4.50;1.00;;;;;;5054949;28;20942;-56
2023/03/04 12:30:32;;;;;;;31.55;14.20;;;4.40;1.00;;;;;;5061585;28;20747;-56
2023/03/04 12:33:20;;;;;;;38.63;14.93;;;3.80;1.00;;;;;;5058541;28;20470;-56
2023/03/04 12:36:28;;;;;;;38.17;16.20;;;4.10;1.00;;;;;;5062913;28;20902;-56
2023/03/04 12:39:12;;;;;;;34.58;15.18;;;4.30;1.00;;;;;;5057809;28;20393;-56
2023/03/04 12:41:42;;;;;;;38.88;15.95;;;4.20;1.00;;;;;;5073872;28;20393;-57
2023/03/04 12:44:19;;;;;;;35.25;16.02;;;5.20;1.00;;;;;;5052530;28;20413;-56
2023/03/04 12:46:47;;;;;;;34.85;14.57;;;4.00;1.00;;;;;;5083918;28;20794;-56
2023/03/04 12:49:41;;;;;;;38.72;15.73;;;5.60;1.00;;;;;;5081551;28;20398;-56
2023/03/04 12:52:32;;;;;;;34.50;14.40;;;5.40;1.00;;;;;;5086885;28;20406;-56